Caseville, MI

3:46 AM EDT on July 25, 2014 (GMT -0400)
Sand Point (KMISANDP1) Elev 598 ft | 43.91 °N, 83.38 °W | Change Station

Current weather conditions updated 1 minute ago

Clear
Clear
62.5 °F
Feels Like 62.5 °F
N
2.0
Wind Variable Wind from South
Gusts 3.0 mph

Today is forecast to be Warmer than yesterday.

Today
High -- | Low -- °F
--% Chance of Precip.
Yesterday
High -- | Low -- °F
Precip. -- in
6:13 AM 9:04 PM
Waning Crescent, 2% visible
Pressure 30.05 in
Visibility 10.0 miles
Clouds Clear
Dew Point 58 °F
Humidity 86%
Rainfall 0.00 in
Snow Depth Not available.
UV 0.0 out of 12
Pollen 6.10 out of 12
Ozone Good
PM2.5 Good
Flu Activity Not available.
METAR KBAX 250737Z AUTO 00000KT 10SM CLR 09/07 A3005 RMK AO2 T00860074

More Conditions Fewer Conditions

Pressure 30.05 in
Visibility 10.0 miles
Clouds Clear
Dew Point 58 °F
Humidity 86%
Rainfall 0.00 in
Snow Depth Not available.
UV 0.0 out of 12
Pollen 6.10 out of 12
Ozone Good
PM2.5 Good
Flu Activity Not available.
METAR KBAX 250737Z AUTO 00000KT 10SM CLR 09/07 A3005 RMK AO2 T00860074

More Conditions Fewer Conditions

10-Day Weather Forecast

Almanac

Astronomy

Jul. 25, 2014 Rise Set
Actual Time 6:13 AM EDT 9:04 PM EDT
Civil Twilight 5:39 AM EDT 9:38 PM EDT
Nautical Twilight 4:57 AM EDT 10:20 PM EDT
Astronomical Twilight 4:07 AM EDT 11:10 PM EDT
Moon 5:13 AM EDT 7:58 PM EDT
Length of Visible Light 15h 58m
Length of Day
14h 50m
Tomorrow will be 2m 5s shorter.
Waning Crescent, 2% of the Moon is Illuminated
Today
Waning Crescent
Jul 26
New
Aug 3
First Quarter
Aug 10
Full
Aug 17
Last Quarter

Today's Extremes

State Highs State Lows

Community

WunderPhotos

Upload Photos

1,737,273 photos uploaded!

Nearby

Air Quality

  Air Quality AQ Index Pollutant
Yesterday Good
PM2.5
Yesterday Good
OZONE
Current Good
PM2.5
Current Good
OZONE
Friday Good
OZONE
Friday Good
PM2.5
Saturday Good
OZONE
Saturday Good
PM2.5
Sunday Good
OZONE
Sunday Good
PM2.5
Monday Good
OZONE
Monday Good
PM2.5
Tuesday Good
OZONE
Tuesday Good
PM2.5

Snow Depth

Station Depth Elevation
No new snow has been reported.

Earthquake Activity

City Distance Mag. Time & Date
No recent earthquake activity has been reported nearby.
Minimum magnitude displayed is 2.5.

Coastal Water Temperatures

Place Temperature
Harbor Beach, MI 66.0 °F

Nearby Weather Stations

Station Location Temp. Dew Point Humidity Wind Precip. Elev Updated Type
Sand Point, Sand Point, MI 62.5 °F 58 °F 86% South  at  2.0 mph 0.00 in / hr 598 ft 3:45 AM EDT Normal
Scotthaven, Port Hope, MI 53.2 °F 52 °F 94% NW  at  2.2 mph 0.00 in / hr 565 ft 3:46 AM EDT Rapid Fire

Show More Stations Show Fewer Stations